sensor_id;sensor_type;location;lat;lon;timestamp;temperature;humidity
39315;DHT22;28703;44.412;11.918;2023-07-16T00:02:15;28.90;99.90
39315;DHT22;28703;44.412;11.918;2023-07-16T00:04:41;28.90;99.90
39315;DHT22;28703;44.412;11.918;2023-07-16T00:07:06;28.90;99.90
39315;DHT22;28703;44.412;11.918;2023-07-16T00:09:32;28.90;99.90
39315;DHT22;28703;44.412;11.918;2023-07-16T00:11:58;28.90;99.90
39315;DHT22;28703;44.412;11.918;2023-07-16T00:14:24;28.80;99.90
39315;DHT22;28703;44.412;11.918;2023-07-16T00:16:50;28.80;99.90
39315;DHT22;28703;44.412;11.918;2023-07-16T00:19:15;28.80;99.90
39315;DHT22;28703;44.412;11.918;2023-07-16T00:22:01;28.80;99.90
39315;DHT22;28703;44.412;11.918;2023-07-16T00:24:27;28.80;99.90
39315;DHT22;28703;44.412;11.918;2023-07-16T00:26:53;28.70;99.90
39315;DHT22;28703;44.412;11.918;2023-07-16T00:29:20;28.70;99.90
39315;DHT22;28703;44.412;11.918;2023-07-16T00:31:46;28.70;99.90
39315;DHT22;28703;44.412;11.918;2023-07-16T00:34:12;28.70;99.90
39315;DHT22;28703;44.412;11.918;2023-07-16T00:36:41;28.60;99.90
39315;DHT22;28703;44.412;11.918;2023-07-16T00:39:07;28.60;99.90
39315;DHT22;28703;44.412;11.918;2023-07-16T00:41:34;28.60;99.90
39315;DHT22;28703;44.412;11.918;2023-07-16T00:44:01;28.60;99.90
39315;DHT22;28703;44.412;11.918;2023-07-16T00:46:28;28.50;99.90
39315;DHT22;28703;44.412;11.918;2023-07-16T00:48:54;28.50;99.80
39315;DHT22;28703;44.412;11.918;2023-07-16T00:51:24;28.50;99.60
39315;DHT22;28703;44.412;11.918;2023-07-16T00:53:51;28.40;99.50
39315;DHT22;28703;44.412;11.918;2023-07-16T00:56:17;28.40;99.50
39315;DHT22;28703;44.412;11.918;2023-07-16T00:58:44;28.40;99.40
39315;DHT22;28703;44.412;11.918;2023-07-16T01:01:10;28.40;99.30
39315;DHT22;28703;44.412;11.918;2023-07-16T01:03:36;28.40;99.30
39315;DHT22;28703;44.412;11.918;2023-07-16T01:06:11;28.30;99.30
39315;DHT22;28703;44.412;11.918;2023-07-16T01:09:03;28.30;99.30
39315;DHT22;28703;44.412;11.918;2023-07-16T01:11:30;28.30;99.40
39315;DHT22;28703;44.412;11.918;2023-07-16T01:13:57;28.20;99.30
39315;DHT22;28703;44.412;11.918;2023-07-16T01:16:24;28.20;99.30
39315;DHT22;28703;44.412;11.918;2023-07-16T01:18:51;28.20;99.60
39315;DHT22;28703;44.412;11.918;2023-07-16T01:21:20;28.20;99.30
39315;DHT22;28703;44.412;11.918;2023-07-16T01:32:10;28.10;99.20
39315;DHT22;28703;44.412;11.918;2023-07-16T01:34:38;28.10;99.20
39315;DHT22;28703;44.412;11.918;2023-07-16T01:37:05;28.10;99.30
39315;DHT22;28703;44.412;11.918;2023-07-16T01:39:32;28.00;99.20
39315;DHT22;28703;44.412;11.918;2023-07-16T01:42:00;28.00;99.30
39315;DHT22;28703;44.412;11.918;2023-07-16T01:44:27;28.00;99.30
39315;DHT22;28703;44.412;11.918;2023-07-16T01:47:14;27.90;99.30
39315;DHT22;28703;44.412;11.918;2023-07-16T01:49:41;27.90;99.30
39315;DHT22;28703;44.412;11.918;2023-07-16T01:52:08;27.90;99.40
39315;DHT22;28703;44.412;11.918;2023-07-16T01:54:35;27.90;99.40
39315;DHT22;28703;44.412;11.918;2023-07-16T01:57:02;27.80;99.40
39315;DHT22;28703;44.412;11.918;2023-07-16T01:59:30;27.80;99.40
39315;DHT22;28703;44.412;11.918;2023-07-16T02:01:56;27.80;99.40
39315;DHT22;28703;44.412;11.918;2023-07-16T02:04:23;27.80;99.40
39315;DHT22;28703;44.412;11.918;2023-07-16T02:06:49;27.70;99.40
39315;DHT22;28703;44.412;11.918;2023-07-16T02:09:19;27.70;99.40
39315;DHT22;28703;44.412;11.918;2023-07-16T02:11:46;27.70;99.40
39315;DHT22;28703;44.412;11.918;2023-07-16T02:14:12;27.70;99.40
39315;DHT22;28703;44.412;11.918;2023-07-16T02:16:39;27.60;99.50
39315;DHT22;28703;44.412;11.918;2023-07-16T02:19:05;27.60;99.40
39315;DHT22;28703;44.412;11.918;2023-07-16T02:21:32;27.60;99.40
39315;DHT22;28703;44.412;11.918;2023-07-16T02:23:58;27.60;99.50
39315;DHT22;28703;44.412;11.918;2023-07-16T02:26:25;27.50;99.40
39315;DHT22;28703;44.412;11.918;2023-07-16T02:29:00;27.50;99.50
39315;DHT22;28703;44.412;11.918;2023-07-16T02:31:26;27.50;99.50
39315;DHT22;28703;44.412;11.918;2023-07-16T02:33:52;27.50;99.50
39315;DHT22;28703;44.412;11.918;2023-07-16T02:36:18;27.50;99.50
39315;DHT22;28703;44.412;11.918;2023-07-16T02:38:44;27.50;99.40
39315;DHT22;28703;44.412;11.918;2023-07-16T02:41:10;27.50;99.40
39315;DHT22;28703;44.412;11.918;2023-07-16T02:43:39;27.50;99.40
39315;DHT22;28703;44.412;11.918;2023-07-16T02:46:05;27.50;99.40
39315;DHT22;28703;44.412;11.918;2023-07-16T02:48:31;27.40;99.40
39315;DHT22;28703;44.412;11.918;2023-07-16T02:50:57;27.40;99.40
39315;DHT22;28703;44.412;11.918;2023-07-16T02:53:23;27.40;99.30
39315;DHT22;28703;44.412;11.918;2023-07-16T02:55:49;27.40;99.30
39315;DHT22;28703;44.412;11.918;2023-07-16T02:58:16;27.40;99.40
39315;DHT22;28703;44.412;11.918;2023-07-16T03:00:42;27.40;99.40
39315;DHT22;28703;44.412;11.918;2023-07-16T03:03:10;27.40;99.40
39315;DHT22;28703;44.412;11.918;2023-07-16T03:05:36;27.40;99.40
39315;DHT22;28703;44.412;11.918;2023-07-16T03:08:02;27.40;99.50
39315;DHT22;28703;44.412;11.918;2023-07-16T03:10:30;27.30;99.50
39315;DHT22;28703;44.412;11.918;2023-07-16T03:12:56;27.30;99.50
39315;DHT22;28703;44.412;11.918;2023-07-16T03:15:23;27.30;99.50
39315;DHT22;28703;44.412;11.918;2023-07-16T03:17:50;27.30;99.50
39315;DHT22;28703;44.412;11.918;2023-07-16T03:20:16;27.30;99.50
39315;DHT22;28703;44.412;11.918;2023-07-16T03:22:42;27.20;99.50
39315;DHT22;28703;44.412;11.918;2023-07-16T03:25:11;27.20;99.60
39315;DHT22;28703;44.412;11.918;2023-07-16T03:27:42;27.20;99.60
39315;DHT22;28703;44.412;11.918;2023-07-16T03:30:08;27.10;99.60
39315;DHT22;28703;44.412;11.918;2023-07-16T03:32:34;27.20;99.60
39315;DHT22;28703;44.412;11.918;2023-07-16T03:35:01;27.20;99.60
39315;DHT22;28703;44.412;11.918;2023-07-16T03:37:27;27.10;99.40
39315;DHT22;28703;44.412;11.918;2023-07-16T03:39:52;27.10;99.20
39315;DHT22;28703;44.412;11.918;2023-07-16T03:42:18;27.10;99.10
39315;DHT22;28703;44.412;11.918;2023-07-16T03:44:45;27.00;98.90
39315;DHT22;28703;44.412;11.918;2023-07-16T03:47:11;27.00;98.80
39315;DHT22;28703;44.412;11.918;2023-07-16T03:49:38;27.00;98.60
39315;DHT22;28703;44.412;11.918;2023-07-16T03:52:05;27.00;98.50
39315;DHT22;28703;44.412;11.918;2023-07-16T03:54:31;27.00;98.40
39315;DHT22;28703;44.412;11.918;2023-07-16T03:56:57;27.00;98.30
39315;DHT22;28703;44.412;11.918;2023-07-16T03:59:24;27.00;98.30
39315;DHT22;28703;44.412;11.918;2023-07-16T04:01:51;27.00;98.30
39315;DHT22;28703;44.412;11.918;2023-07-16T04:04:20;27.10;98.20
39315;DHT22;28703;44.412;11.918;2023-07-16T04:06:46;27.10;98.20
39315;DHT22;28703;44.412;11.918;2023-07-16T04:09:12;27.10;98.10
39315;DHT22;28703;44.412;11.918;2023-07-16T04:11:38;27.10;98.10
39315;DHT22;28703;44.412;11.918;2023-07-16T04:14:04;27.10;98.00
39315;DHT22;28703;44.412;11.918;2023-07-16T04:16:30;27.10;98.10
39315;DHT22;28703;44.412;11.918;2023-07-16T04:18:55;27.10;98.10
39315;DHT22;28703;44.412;11.918;2023-07-16T04:21:21;27.10;98.00
39315;DHT22;28703;44.412;11.918;2023-07-16T04:23:47;27.10;98.00
39315;DHT22;28703;44.412;11.918;2023-07-16T04:26:13;27.10;98.00
39315;DHT22;28703;44.412;11.918;2023-07-16T04:28:39;27.10;98.00
39315;DHT22;28703;44.412;11.918;2023-07-16T04:31:05;27.10;98.00
39315;DHT22;28703;44.412;11.918;2023-07-16T04:33:30;27.10;97.90
39315;DHT22;28703;44.412;11.918;2023-07-16T04:35:56;27.10;97.80
39315;DHT22;28703;44.412;11.918;2023-07-16T04:38:22;27.00;97.70
39315;DHT22;28703;44.412;11.918;2023-07-16T04:40:48;27.00;97.50
39315;DHT22;28703;44.412;11.918;2023-07-16T04:43:14;27.00;97.50
39315;DHT22;28703;44.412;11.918;2023-07-16T04:45:40;27.00;97.50
39315;DHT22;28703;44.412;11.918;2023-07-16T04:48:06;26.90;97.40
39315;DHT22;28703;44.412;11.918;2023-07-16T04:50:32;26.90;97.40
39315;DHT22;28703;44.412;11.918;2023-07-16T04:52:58;26.90;97.30
39315;DHT22;28703;44.412;11.918;2023-07-16T04:55:23;26.90;97.40
39315;DHT22;28703;44.412;11.918;2023-07-16T04:57:50;26.90;97.50
39315;DHT22;28703;44.412;11.918;2023-07-16T05:00:19;26.90;97.50
39315;DHT22;28703;44.412;11.918;2023-07-16T05:02:45;26.90;97.50
39315;DHT22;28703;44.412;11.918;2023-07-16T05:05:10;26.90;97.50
39315;DHT22;28703;44.412;11.918;2023-07-16T05:07:36;26.90;97.50
39315;DHT22;28703;44.412;11.918;2023-07-16T05:10:02;26.90;97.50
39315;DHT22;28703;44.412;11.918;2023-07-16T05:12:28;27.00;97.50
39315;DHT22;28703;44.412;11.918;2023-07-16T05:14:54;27.00;97.50
39315;DHT22;28703;44.412;11.918;2023-07-16T05:17:20;27.00;97.30
39315;DHT22;28703;44.412;11.918;2023-07-16T05:19:46;27.00;97.20
39315;DHT22;28703;44.412;11.918;2023-07-16T05:22:11;27.10;97.10
39315;DHT22;28703;44.412;11.918;2023-07-16T05:24:37;27.10;97.10
39315;DHT22;28703;44.412;11.918;2023-07-16T05:27:03;27.10;97.00
39315;DHT22;28703;44.412;11.918;2023-07-16T05:29:29;27.20;97.00
39315;DHT22;28703;44.412;11.918;2023-07-16T05:31:55;27.20;97.00
39315;DHT22;28703;44.412;11.918;2023-07-16T05:34:21;27.20;96.90
39315;DHT22;28703;44.412;11.918;2023-07-16T05:36:47;27.20;96.80
39315;DHT22;28703;44.412;11.918;2023-07-16T05:39:13;27.20;96.80
39315;DHT22;28703;44.412;11.918;2023-07-16T05:41:39;27.30;96.90
39315;DHT22;28703;44.412;11.918;2023-07-16T05:44:06;27.30;96.90
39315;DHT22;28703;44.412;11.918;2023-07-16T05:46:38;27.30;96.90
39315;DHT22;28703;44.412;11.918;2023-07-16T05:49:04;27.30;96.90
39315;DHT22;28703;44.412;11.918;2023-07-16T05:51:30;27.30;97.00
39315;DHT22;28703;44.412;11.918;2023-07-16T05:53:56;27.30;97.10
39315;DHT22;28703;44.412;11.918;2023-07-16T05:56:22;27.30;97.20
39315;DHT22;28703;44.412;11.918;2023-07-16T05:58:48;27.30;97.40
39315;DHT22;28703;44.412;11.918;2023-07-16T06:01:14;27.30;97.40
39315;DHT22;28703;44.412;11.918;2023-07-16T06:03:40;27.30;97.50
39315;DHT22;28703;44.412;11.918;2023-07-16T06:06:08;27.30;97.60
39315;DHT22;28703;44.412;11.918;2023-07-16T06:08:34;27.40;97.70
39315;DHT22;28703;44.412;11.918;2023-07-16T06:11:00;27.40;97.80
39315;DHT22;28703;44.412;11.918;2023-07-16T06:13:26;27.40;97.80
39315;DHT22;28703;44.412;11.918;2023-07-16T06:15:52;27.50;97.90
39315;DHT22;28703;44.412;11.918;2023-07-16T06:18:18;27.50;98.00
39315;DHT22;28703;44.412;11.918;2023-07-16T06:20:45;27.50;98.20
39315;DHT22;28703;44.412;11.918;2023-07-16T06:23:12;27.60;98.10
39315;DHT22;28703;44.412;11.918;2023-07-16T06:25:38;27.60;98.10
39315;DHT22;28703;44.412;11.918;2023-07-16T06:28:06;27.70;98.20
39315;DHT22;28703;44.412;11.918;2023-07-16T06:30:32;27.60;98.10
39315;DHT22;28703;44.412;11.918;2023-07-16T06:32:59;27.70;98.10
39315;DHT22;28703;44.412;11.918;2023-07-16T06:35:25;27.80;98.10
39315;DHT22;28703;44.412;11.918;2023-07-16T06:37:51;27.80;98.10
39315;DHT22;28703;44.412;11.918;2023-07-16T06:40:17;27.80;98.10
39315;DHT22;28703;44.412;11.918;2023-07-16T06:42:43;27.90;98.00
39315;DHT22;28703;44.412;11.918;2023-07-16T06:45:09;27.90;97.90
39315;DHT22;28703;44.412;11.918;2023-07-16T06:47:35;28.00;97.80
39315;DHT22;28703;44.412;11.918;2023-07-16T06:50:02;28.00;97.70
39315;DHT22;28703;44.412;11.918;2023-07-16T06:52:28;28.10;97.70
39315;DHT22;28703;44.412;11.918;2023-07-16T06:54:54;28.10;97.70
39315;DHT22;28703;44.412;11.918;2023-07-16T06:57:22;28.10;97.60
39315;DHT22;28703;44.412;11.918;2023-07-16T06:59:48;28.20;97.50
39315;DHT22;28703;44.412;11.918;2023-07-16T07:02:15;28.20;97.40
39315;DHT22;28703;44.412;11.918;2023-07-16T07:04:40;28.20;97.40
39315;DHT22;28703;44.412;11.918;2023-07-16T07:07:07;28.30;97.30
39315;DHT22;28703;44.412;11.918;2023-07-16T07:09:32;28.30;97.10
39315;DHT22;28703;44.412;11.918;2023-07-16T07:11:58;28.30;97.00
39315;DHT22;28703;44.412;11.918;2023-07-16T07:14:24;28.40;96.90
39315;DHT22;28703;44.412;11.918;2023-07-16T07:16:50;28.40;96.90
39315;DHT22;28703;44.412;11.918;2023-07-16T07:19:16;28.50;96.90
39315;DHT22;28703;44.412;11.918;2023-07-16T07:21:42;28.50;96.90
39315;DHT22;28703;44.412;11.918;2023-07-16T07:24:08;28.60;97.00
39315;DHT22;28703;44.412;11.918;2023-07-16T07:26:34;28.60;97.10
39315;DHT22;28703;44.412;11.918;2023-07-16T07:29:00;28.70;97.30
39315;DHT22;28703;44.412;11.918;2023-07-16T07:31:26;28.70;97.40
39315;DHT22;28703;44.412;11.918;2023-07-16T07:33:52;28.70;97.30
39315;DHT22;28703;44.412;11.918;2023-07-16T07:36:19;28.80;97.20
39315;DHT22;28703;44.412;11.918;2023-07-16T07:38:45;28.80;97.10
39315;DHT22;28703;44.412;11.918;2023-07-16T07:41:12;28.90;96.90
39315;DHT22;28703;44.412;11.918;2023-07-16T07:43:38;28.90;96.70
39315;DHT22;28703;44.412;11.918;2023-07-16T07:46:04;28.90;96.70
39315;DHT22;28703;44.412;11.918;2023-07-16T07:48:31;29.00;96.70
39315;DHT22;28703;44.412;11.918;2023-07-16T07:50:57;29.00;96.60
39315;DHT22;28703;44.412;11.918;2023-07-16T07:53:23;29.00;96.60
39315;DHT22;28703;44.412;11.918;2023-07-16T07:55:49;29.10;96.70
39315;DHT22;28703;44.412;11.918;2023-07-16T07:58:15;29.20;96.60
39315;DHT22;28703;44.412;11.918;2023-07-16T08:00:41;29.20;96.60
39315;DHT22;28703;44.412;11.918;2023-07-16T08:03:07;29.20;96.70
39315;DHT22;28703;44.412;11.918;2023-07-16T08:05:33;29.20;96.70
39315;DHT22;28703;44.412;11.918;2023-07-16T08:07:59;29.30;96.80
39315;DHT22;28703;44.412;11.918;2023-07-16T08:10:25;29.40;96.70
39315;DHT22;28703;44.412;11.918;2023-07-16T08:12:51;29.40;96.70
39315;DHT22;28703;44.412;11.918;2023-07-16T08:15:18;29.50;96.60
39315;DHT22;28703;44.412;11.918;2023-07-16T08:17:45;29.50;96.60
39315;DHT22;28703;44.412;11.918;2023-07-16T08:20:12;29.50;96.50
39315;DHT22;28703;44.412;11.918;2023-07-16T08:22:38;29.60;96.40
39315;DHT22;28703;44.412;11.918;2023-07-16T08:25:05;29.70;96.40
39315;DHT22;28703;44.412;11.918;2023-07-16T08:27:32;29.70;96.20
39315;DHT22;28703;44.412;11.918;2023-07-16T08:29:58;29.70;96.10
39315;DHT22;28703;44.412;11.918;2023-07-16T08:32:24;29.80;96.10
39315;DHT22;28703;44.412;11.918;2023-07-16T08:34:50;29.80;96.20
39315;DHT22;28703;44.412;11.918;2023-07-16T08:37:16;29.90;96.20
39315;DHT22;28703;44.412;11.918;2023-07-16T08:39:42;29.90;96.20
39315;DHT22;28703;44.412;11.918;2023-07-16T08:42:09;30.00;96.00
39315;DHT22;28703;44.412;11.918;2023-07-16T08:44:37;30.00;95.80
39315;DHT22;28703;44.412;11.918;2023-07-16T08:47:05;30.00;95.60
39315;DHT22;28703;44.412;11.918;2023-07-16T08:49:31;30.10;95.40
39315;DHT22;28703;44.412;11.918;2023-07-16T08:51:59;30.10;95.20
39315;DHT22;28703;44.412;11.918;2023-07-16T08:54:26;30.20;95.00
39315;DHT22;28703;44.412;11.918;2023-07-16T08:56:52;30.30;94.60
39315;DHT22;28703;44.412;11.918;2023-07-16T08:59:18;30.30;94.40
39315;DHT22;28703;44.412;11.918;2023-07-16T09:01:47;30.40;94.50
39315;DHT22;28703;44.412;11.918;2023-07-16T09:04:14;30.40;94.50
39315;DHT22;28703;44.412;11.918;2023-07-16T09:06:40;30.40;94.30
39315;DHT22;28703;44.412;11.918;2023-07-16T09:09:06;30.50;93.70
39315;DHT22;28703;44.412;11.918;2023-07-16T09:11:33;30.50;93.30
39315;DHT22;28703;44.412;11.918;2023-07-16T09:14:02;30.60;93.00
39315;DHT22;28703;44.412;11.918;2023-07-16T09:16:32;30.70;92.70
39315;DHT22;28703;44.412;11.918;2023-07-16T09:19:06;30.70;92.50
39315;DHT22;28703;44.412;11.918;2023-07-16T09:21:33;30.80;92.20
39315;DHT22;28703;44.412;11.918;2023-07-16T09:24:00;30.80;91.90
39315;DHT22;28703;44.412;11.918;2023-07-16T09:26:31;30.90;91.40
39315;DHT22;28703;44.412;11.918;2023-07-16T09:28:57;30.90;91.10
39315;DHT22;28703;44.412;11.918;2023-07-16T09:31:22;31.00;90.70
39315;DHT22;28703;44.412;11.918;2023-07-16T09:33:51;31.00;89.50
39315;DHT22;28703;44.412;11.918;2023-07-16T09:36:26;31.10;89.80
39315;DHT22;28703;44.412;11.918;2023-07-16T09:38:53;31.20;90.30
39315;DHT22;28703;44.412;11.918;2023-07-16T09:41:21;31.20;90.40
39315;DHT22;28703;44.412;11.918;2023-07-16T09:43:47;31.30;90.00
39315;DHT22;28703;44.412;11.918;2023-07-16T09:46:13;31.40;89.20
39315;DHT22;28703;44.412;11.918;2023-07-16T09:48:39;31.40;89.30
39315;DHT22;28703;44.412;11.918;2023-07-16T09:51:07;31.50;89.00
39315;DHT22;28703;44.412;11.918;2023-07-16T09:53:40;31.50;88.70
39315;DHT22;28703;44.412;11.918;2023-07-16T09:56:10;31.60;88.60
39315;DHT22;28703;44.412;11.918;2023-07-16T09:58:38;31.60;88.90
39315;DHT22;28703;44.412;11.918;2023-07-16T10:01:04;31.70;90.00
39315;DHT22;28703;44.412;11.918;2023-07-16T10:03:30;31.80;89.70
39315;DHT22;28703;44.412;11.918;2023-07-16T10:06:06;31.80;89.10
39315;DHT22;28703;44.412;11.918;2023-07-16T10:08:34;31.90;88.20
39315;DHT22;28703;44.412;11.918;2023-07-16T10:11:00;31.90;88.40
39315;DHT22;28703;44.412;11.918;2023-07-16T10:13:26;32.00;87.90
39315;DHT22;28703;44.412;11.918;2023-07-16T10:18:29;32.10;87.60
39315;DHT22;28703;44.412;11.918;2023-07-16T10:21:09;32.20;87.70
39315;DHT22;28703;44.412;11.918;2023-07-16T10:23:42;32.10;87.80
39315;DHT22;28703;44.412;11.918;2023-07-16T10:26:11;32.30;87.10
39315;DHT22;28703;44.412;11.918;2023-07-16T10:28:38;32.30;86.90
39315;DHT22;28703;44.412;11.918;2023-07-16T10:31:04;32.30;86.60
39315;DHT22;28703;44.412;11.918;2023-07-16T10:33:31;32.30;86.70
39315;DHT22;28703;44.412;11.918;2023-07-16T10:35:57;32.40;86.90
39315;DHT22;28703;44.412;11.918;2023-07-16T10:38:26;32.50;86.40
39315;DHT22;28703;44.412;11.918;2023-07-16T10:40:52;32.50;85.40
39315;DHT22;28703;44.412;11.918;2023-07-16T10:43:18;32.60;84.80
39315;DHT22;28703;44.412;11.918;2023-07-16T10:45:44;32.60;85.20
39315;DHT22;28703;44.412;11.918;2023-07-16T10:48:14;32.70;85.40
39315;DHT22;28703;44.412;11.918;2023-07-16T10:50:40;32.80;85.50
39315;DHT22;28703;44.412;11.918;2023-07-16T10:53:06;32.80;84.60
39315;DHT22;28703;44.412;11.918;2023-07-16T10:55:44;32.90;83.70
39315;DHT22;28703;44.412;11.918;2023-07-16T10:58:10;33.00;83.80
39315;DHT22;28703;44.412;11.918;2023-07-16T11:00:38;32.90;84.90
39315;DHT22;28703;44.412;11.918;2023-07-16T11:03:04;33.10;84.30
39315;DHT22;28703;44.412;11.918;2023-07-16T11:05:31;33.10;85.00
39315;DHT22;28703;44.412;11.918;2023-07-16T11:07:57;33.10;84.80
39315;DHT22;28703;44.412;11.918;2023-07-16T11:10:24;33.10;85.10
39315;DHT22;28703;44.412;11.918;2023-07-16T11:12:51;33.20;84.70
39315;DHT22;28703;44.412;11.918;2023-07-16T11:15:18;33.20;84.40
39315;DHT22;28703;44.412;11.918;2023-07-16T11:17:48;33.20;84.30
39315;DHT22;28703;44.412;11.918;2023-07-16T11:20:15;33.30;84.20
39315;DHT22;28703;44.412;11.918;2023-07-16T11:22:46;33.40;84.70
39315;DHT22;28703;44.412;11.918;2023-07-16T11:25:13;33.40;84.40
39315;DHT22;28703;44.412;11.918;2023-07-16T11:27:41;33.40;84.10
39315;DHT22;28703;44.412;11.918;2023-07-16T11:30:07;33.50;84.30
39315;DHT22;28703;44.412;11.918;2023-07-16T11:35:02;33.60;85.20
39315;DHT22;28703;44.412;11.918;2023-07-16T11:37:31;33.70;84.50
39315;DHT22;28703;44.412;11.918;2023-07-16T11:40:01;33.70;84.00
39315;DHT22;28703;44.412;11.918;2023-07-16T11:42:31;33.70;84.40
39315;DHT22;28703;44.412;11.918;2023-07-16T11:44:57;33.80;84.30
39315;DHT22;28703;44.412;11.918;2023-07-16T11:47:24;33.90;83.20
39315;DHT22;28703;44.412;11.918;2023-07-16T11:49:50;33.90;82.90
39315;DHT22;28703;44.412;11.918;2023-07-16T11:52:27;34.00;83.20
39315;DHT22;28703;44.412;11.918;2023-07-16T11:54:57;34.10;83.70
39315;DHT22;28703;44.412;11.918;2023-07-16T11:57:25;34.10;84.20
39315;DHT22;28703;44.412;11.918;2023-07-16T11:59:51;34.20;84.30
39315;DHT22;28703;44.412;11.918;2023-07-16T12:02:22;34.30;84.20
39315;DHT22;28703;44.412;11.918;2023-07-16T12:04:48;34.30;84.30
39315;DHT22;28703;44.412;11.918;2023-07-16T12:07:14;34.40;84.60
39315;DHT22;28703;44.412;11.918;2023-07-16T12:09:40;34.50;84.90
39315;DHT22;28703;44.412;11.918;2023-07-16T12:12:07;34.60;85.00
39315;DHT22;28703;44.412;11.918;2023-07-16T12:14:33;34.60;84.80
39315;DHT22;28703;44.412;11.918;2023-07-16T12:16:59;34.70;84.20
39315;DHT22;28703;44.412;11.918;2023-07-16T12:19:25;34.80;83.30
39315;DHT22;28703;44.412;11.918;2023-07-16T12:21:51;34.90;83.50
39315;DHT22;28703;44.412;11.918;2023-07-16T12:24:20;34.90;83.60
39315;DHT22;28703;44.412;11.918;2023-07-16T12:26:46;35.00;83.80
39315;DHT22;28703;44.412;11.918;2023-07-16T12:29:22;35.00;83.90
39315;DHT22;28703;44.412;11.918;2023-07-16T12:31:49;35.20;84.20
39315;DHT22;28703;44.412;11.918;2023-07-16T12:34:16;35.30;83.80
39315;DHT22;28703;44.412;11.918;2023-07-16T12:36:42;35.30;82.90
39315;DHT22;28703;44.412;11.918;2023-07-16T12:39:08;35.40;82.80
39315;DHT22;28703;44.412;11.918;2023-07-16T12:41:34;35.50;83.00
39315;DHT22;28703;44.412;11.918;2023-07-16T12:44:02;35.60;83.60
39315;DHT22;28703;44.412;11.918;2023-07-16T12:46:28;35.70;83.20
39315;DHT22;28703;44.412;11.918;2023-07-16T12:48:54;35.70;81.60
39315;DHT22;28703;44.412;11.918;2023-07-16T12:51:20;35.80;80.80
39315;DHT22;28703;44.412;11.918;2023-07-16T12:53:46;35.90;80.70
39315;DHT22;28703;44.412;11.918;2023-07-16T12:56:12;36.00;80.50
39315;DHT22;28703;44.412;11.918;2023-07-16T12:58:38;36.00;80.40
39315;DHT22;28703;44.412;11.918;2023-07-16T13:01:04;36.10;80.10
39315;DHT22;28703;44.412;11.918;2023-07-16T13:03:30;36.20;80.20
39315;DHT22;28703;44.412;11.918;2023-07-16T13:05:56;36.30;80.00
39315;DHT22;28703;44.412;11.918;2023-07-16T13:08:22;36.40;79.60
39315;DHT22;28703;44.412;11.918;2023-07-16T13:10:48;36.50;79.70
39315;DHT22;28703;44.412;11.918;2023-07-16T13:13:13;36.60;79.50
39315;DHT22;28703;44.412;11.918;2023-07-16T13:15:39;36.60;78.20
39315;DHT22;28703;44.412;11.918;2023-07-16T13:18:05;36.60;77.90
39315;DHT22;28703;44.412;11.918;2023-07-16T13:20:31;36.70;78.50
39315;DHT22;28703;44.412;11.918;2023-07-16T13:22:57;36.70;78.80
39315;DHT22;28703;44.412;11.918;2023-07-16T13:25:23;36.80;80.00
39315;DHT22;28703;44.412;11.918;2023-07-16T13:27:49;36.90;80.40
39315;DHT22;28703;44.412;11.918;2023-07-16T13:30:15;37.00;81.00
39315;DHT22;28703;44.412;11.918;2023-07-16T13:32:41;37.00;80.20
39315;DHT22;28703;44.412;11.918;2023-07-16T13:35:07;37.10;80.10
39315;DHT22;28703;44.412;11.918;2023-07-16T13:37:33;37.20;80.00
39315;DHT22;28703;44.412;11.918;2023-07-16T13:40:00;37.30;80.10
39315;DHT22;28703;44.412;11.918;2023-07-16T13:42:25;37.40;79.80
39315;DHT22;28703;44.412;11.918;2023-07-16T13:44:51;37.50;80.20
39315;DHT22;28703;44.412;11.918;2023-07-16T13:47:17;37.50;80.60
39315;DHT22;28703;44.412;11.918;2023-07-16T13:49:43;37.70;81.00
39315;DHT22;28703;44.412;11.918;2023-07-16T13:52:09;37.70;81.10
39315;DHT22;28703;44.412;11.918;2023-07-16T13:54:35;37.80;82.00
39315;DHT22;28703;44.412;11.918;2023-07-16T13:57:00;37.90;82.60
39315;DHT22;28703;44.412;11.918;2023-07-16T13:59:26;37.90;82.80
39315;DHT22;28703;44.412;11.918;2023-07-16T14:02:00;38.00;83.20
39315;DHT22;28703;44.412;11.918;2023-07-16T14:04:29;38.10;83.30
39315;DHT22;28703;44.412;11.918;2023-07-16T14:06:55;38.10;83.40
39315;DHT22;28703;44.412;11.918;2023-07-16T14:09:22;38.20;83.80
39315;DHT22;28703;44.412;11.918;2023-07-16T14:11:48;38.30;84.20
39315;DHT22;28703;44.412;11.918;2023-07-16T14:14:15;38.30;84.20
39315;DHT22;28703;44.412;11.918;2023-07-16T14:16:41;38.40;84.00
39315;DHT22;28703;44.412;11.918;2023-07-16T14:19:07;38.40;84.00
39315;DHT22;28703;44.412;11.918;2023-07-16T14:21:32;38.40;84.30
39315;DHT22;28703;44.412;11.918;2023-07-16T14:23:58;38.40;84.40
39315;DHT22;28703;44.412;11.918;2023-07-16T14:26:24;38.40;84.30
39315;DHT22;28703;44.412;11.918;2023-07-16T14:28:50;38.50;84.60
39315;DHT22;28703;44.412;11.918;2023-07-16T14:31:16;38.50;84.60
39315;DHT22;28703;44.412;11.918;2023-07-16T14:33:42;38.50;84.40
39315;DHT22;28703;44.412;11.918;2023-07-16T14:36:08;38.60;84.80
39315;DHT22;28703;44.412;11.918;2023-07-16T14:38:33;38.70;85.20
39315;DHT22;28703;44.412;11.918;2023-07-16T14:40:59;38.70;85.00
39315;DHT22;28703;44.412;11.918;2023-07-16T14:43:26;38.80;85.10
39315;DHT22;28703;44.412;11.918;2023-07-16T14:45:52;38.90;85.00
39315;DHT22;28703;44.412;11.918;2023-07-16T14:48:17;38.90;84.80
39315;DHT22;28703;44.412;11.918;2023-07-16T14:50:43;39.00;84.40
39315;DHT22;28703;44.412;11.918;2023-07-16T14:53:09;39.00;84.50
39315;DHT22;28703;44.412;11.918;2023-07-16T14:55:36;39.10;83.70
39315;DHT22;28703;44.412;11.918;2023-07-16T14:58:02;39.20;83.80
39315;DHT22;28703;44.412;11.918;2023-07-16T15:00:28;39.20;83.50
39315;DHT22;28703;44.412;11.918;2023-07-16T15:02:54;39.20;83.40
39315;DHT22;28703;44.412;11.918;2023-07-16T15:05:19;39.30;83.40
39315;DHT22;28703;44.412;11.918;2023-07-16T15:07:45;39.40;83.20
39315;DHT22;28703;44.412;11.918;2023-07-16T15:10:12;39.50;82.40
39315;DHT22;28703;44.412;11.918;2023-07-16T15:12:38;39.50;82.10
39315;DHT22;28703;44.412;11.918;2023-07-16T15:15:04;39.60;82.00
39315;DHT22;28703;44.412;11.918;2023-07-16T15:17:31;39.60;82.00
39315;DHT22;28703;44.412;11.918;2023-07-16T15:19:56;39.70;81.40
39315;DHT22;28703;44.412;11.918;2023-07-16T15:22:22;39.80;81.30
39315;DHT22;28703;44.412;11.918;2023-07-16T15:24:49;39.80;81.10
39315;DHT22;28703;44.412;11.918;2023-07-16T15:27:16;39.90;80.80